sensor_id;sensor_type;location;lat;lon;timestamp;P1;durP1;ratioP1;P2;durP2;ratioP2
18711;SDS011;9485;49.386;8.674;2023-05-07T00:03:33;1.67;;;1.40;;
18711;SDS011;9485;49.386;8.674;2023-05-07T00:08:54;1.20;;;1.10;;
18711;SDS011;9485;49.386;8.674;2023-05-07T00:14:17;1.53;;;1.20;;
18711;SDS011;9485;49.386;8.674;2023-05-07T00:19:38;1.13;;;1.10;;
18711;SDS011;9485;49.386;8.674;2023-05-07T00:24:59;1.30;;;1.20;;
18711;SDS011;9485;49.386;8.674;2023-05-07T00:30:21;1.33;;;1.20;;
18711;SDS011;9485;49.386;8.674;2023-05-07T00:35:41;1.93;;;1.23;;
18711;SDS011;9485;49.386;8.674;2023-05-07T00:41:02;2.83;;;1.40;;
18711;SDS011;9485;49.386;8.674;2023-05-07T00:46:25;1.20;;;1.10;;
18711;SDS011;9485;49.386;8.674;2023-05-07T00:51:45;1.67;;;1.37;;
18711;SDS011;9485;49.386;8.674;2023-05-07T00:57:07;1.90;;;1.30;;
18711;SDS011;9485;49.386;8.674;2023-05-07T01:02:31;2.23;;;1.47;;
18711;SDS011;9485;49.386;8.674;2023-05-07T01:07:52;1.50;;;1.40;;
18711;SDS011;9485;49.386;8.674;2023-05-07T01:13:14;1.20;;;1.10;;
18711;SDS011;9485;49.386;8.674;2023-05-07T01:18:37;2.10;;;1.70;;
18711;SDS011;9485;49.386;8.674;2023-05-07T01:24:00;1.73;;;1.63;;
18711;SDS011;9485;49.386;8.674;2023-05-07T01:29:23;1.77;;;1.30;;
18711;SDS011;9485;49.386;8.674;2023-05-07T01:34:44;1.20;;;1.10;;
18711;SDS011;9485;49.386;8.674;2023-05-07T01:40:09;1.47;;;0.80;;
18711;SDS011;9485;49.386;8.674;2023-05-07T01:45:31;1.43;;;0.97;;
18711;SDS011;9485;49.386;8.674;2023-05-07T01:50:54;0.88;;;0.88;;
18711;SDS011;9485;49.386;8.674;2023-05-07T01:56:17;3.30;;;1.08;;
18711;SDS011;9485;49.386;8.674;2023-05-07T02:01:39;0.90;;;0.90;;
18711;SDS011;9485;49.386;8.674;2023-05-07T02:07:00;1.20;;;1.10;;
18711;SDS011;9485;49.386;8.674;2023-05-07T02:12:23;0.95;;;0.85;;
18711;SDS011;9485;49.386;8.674;2023-05-07T02:17:57;0.85;;;0.85;;
18711;SDS011;9485;49.386;8.674;2023-05-07T02:23:20;1.10;;;1.00;;
18711;SDS011;9485;49.386;8.674;2023-05-07T02:28:42;0.80;;;0.80;;
18711;SDS011;9485;49.386;8.674;2023-05-07T02:34:03;1.10;;;0.90;;
18711;SDS011;9485;49.386;8.674;2023-05-07T02:39:23;0.80;;;0.80;;
18711;SDS011;9485;49.386;8.674;2023-05-07T02:44:46;1.77;;;1.02;;
18711;SDS011;9485;49.386;8.674;2023-05-07T02:50:07;1.27;;;1.17;;
18711;SDS011;9485;49.386;8.674;2023-05-07T02:55:28;3.20;;;1.65;;
18711;SDS011;9485;49.386;8.674;2023-05-07T03:00:50;0.93;;;0.93;;
18711;SDS011;9485;49.386;8.674;2023-05-07T03:06:22;1.00;;;1.00;;
18711;SDS011;9485;49.386;8.674;2023-05-07T03:11:43;2.80;;;1.50;;
18711;SDS011;9485;49.386;8.674;2023-05-07T03:17:05;1.60;;;1.10;;
18711;SDS011;9485;49.386;8.674;2023-05-07T03:22:26;1.10;;;1.00;;
18711;SDS011;9485;49.386;8.674;2023-05-07T03:27:46;1.83;;;1.20;;
18711;SDS011;9485;49.386;8.674;2023-05-07T03:33:10;1.60;;;1.50;;
18711;SDS011;9485;49.386;8.674;2023-05-07T03:38:31;2.80;;;2.10;;
18711;SDS011;9485;49.386;8.674;2023-05-07T03:43:52;2.00;;;1.73;;
18711;SDS011;9485;49.386;8.674;2023-05-07T03:49:15;1.97;;;1.77;;
18711;SDS011;9485;49.386;8.674;2023-05-07T03:54:36;1.93;;;1.77;;
18711;SDS011;9485;49.386;8.674;2023-05-07T03:59:57;3.40;;;2.47;;
18711;SDS011;9485;49.386;8.674;2023-05-07T04:05:19;2.20;;;2.00;;
18711;SDS011;9485;49.386;8.674;2023-05-07T04:10:43;2.20;;;2.00;;
18711;SDS011;9485;49.386;8.674;2023-05-07T04:16:05;2.37;;;2.10;;
18711;SDS011;9485;49.386;8.674;2023-05-07T04:21:29;2.40;;;2.20;;
18711;SDS011;9485;49.386;8.674;2023-05-07T04:26:51;2.07;;;1.80;;
18711;SDS011;9485;49.386;8.674;2023-05-07T04:32:12;2.37;;;2.17;;
18711;SDS011;9485;49.386;8.674;2023-05-07T04:37:35;2.07;;;1.87;;
18711;SDS011;9485;49.386;8.674;2023-05-07T04:42:56;2.40;;;2.20;;
18711;SDS011;9485;49.386;8.674;2023-05-07T04:48:17;2.43;;;2.23;;
18711;SDS011;9485;49.386;8.674;2023-05-07T04:53:42;1.93;;;1.83;;
18711;SDS011;9485;49.386;8.674;2023-05-07T04:59:03;2.57;;;2.30;;
18711;SDS011;9485;49.386;8.674;2023-05-07T05:04:25;2.23;;;2.00;;
18711;SDS011;9485;49.386;8.674;2023-05-07T05:09:48;1.83;;;1.73;;
18711;SDS011;9485;49.386;8.674;2023-05-07T05:15:10;2.63;;;1.50;;
18711;SDS011;9485;49.386;8.674;2023-05-07T05:20:32;1.90;;;1.80;;
18711;SDS011;9485;49.386;8.674;2023-05-07T05:25:56;2.47;;;2.27;;
18711;SDS011;9485;49.386;8.674;2023-05-07T05:31:21;2.37;;;2.13;;
18711;SDS011;9485;49.386;8.674;2023-05-07T05:36:44;2.50;;;2.23;;
18711;SDS011;9485;49.386;8.674;2023-05-07T05:42:08;2.33;;;2.13;;
18711;SDS011;9485;49.386;8.674;2023-05-07T05:47:30;2.30;;;2.10;;
18711;SDS011;9485;49.386;8.674;2023-05-07T05:52:50;2.50;;;2.27;;
18711;SDS011;9485;49.386;8.674;2023-05-07T05:58:14;3.00;;;2.70;;
18711;SDS011;9485;49.386;8.674;2023-05-07T06:03:41;2.90;;;2.60;;
18711;SDS011;9485;49.386;8.674;2023-05-07T06:09:07;3.80;;;2.27;;
18711;SDS011;9485;49.386;8.674;2023-05-07T06:14:34;2.43;;;2.17;;
18711;SDS011;9485;49.386;8.674;2023-05-07T06:19:55;4.13;;;2.60;;
18711;SDS011;9485;49.386;8.674;2023-05-07T06:25:16;2.58;;;2.35;;
18711;SDS011;9485;49.386;8.674;2023-05-07T06:30:38;3.13;;;2.80;;
18711;SDS011;9485;49.386;8.674;2023-05-07T06:35:59;3.27;;;2.97;;
18711;SDS011;9485;49.386;8.674;2023-05-07T06:41:20;3.30;;;2.72;;
18711;SDS011;9485;49.386;8.674;2023-05-07T06:46:42;4.70;;;2.70;;
18711;SDS011;9485;49.386;8.674;2023-05-07T06:52:03;3.38;;;3.00;;
18711;SDS011;9485;49.386;8.674;2023-05-07T06:57:24;4.50;;;3.45;;
18711;SDS011;9485;49.386;8.674;2023-05-07T07:02:46;3.10;;;2.83;;
18711;SDS011;9485;49.386;8.674;2023-05-07T07:08:09;3.17;;;2.60;;
18711;SDS011;9485;49.386;8.674;2023-05-07T07:13:30;3.53;;;2.53;;
18711;SDS011;9485;49.386;8.674;2023-05-07T07:18:52;4.60;;;3.25;;
18711;SDS011;9485;49.386;8.674;2023-05-07T07:24:13;2.80;;;2.25;;
18711;SDS011;9485;49.386;8.674;2023-05-07T07:29:38;2.90;;;2.53;;
18711;SDS011;9485;49.386;8.674;2023-05-07T07:34:59;2.50;;;2.13;;
18711;SDS011;9485;49.386;8.674;2023-05-07T07:40:21;3.33;;;1.77;;
18711;SDS011;9485;49.386;8.674;2023-05-07T07:45:41;2.78;;;2.05;;
18711;SDS011;9485;49.386;8.674;2023-05-07T07:51:04;2.03;;;1.83;;
18711;SDS011;9485;49.386;8.674;2023-05-07T07:56:25;2.15;;;1.83;;
18711;SDS011;9485;49.386;8.674;2023-05-07T08:01:46;3.35;;;2.30;;
18711;SDS011;9485;49.386;8.674;2023-05-07T08:07:11;2.17;;;1.98;;
18711;SDS011;9485;49.386;8.674;2023-05-07T08:12:35;1.98;;;1.83;;
18711;SDS011;9485;49.386;8.674;2023-05-07T08:17:56;1.90;;;1.67;;
18711;SDS011;9485;49.386;8.674;2023-05-07T08:23:25;1.65;;;1.55;;
18711;SDS011;9485;49.386;8.674;2023-05-07T08:28:47;2.05;;;1.52;;
18711;SDS011;9485;49.386;8.674;2023-05-07T08:34:08;1.75;;;1.60;;
18711;SDS011;9485;49.386;8.674;2023-05-07T08:39:34;1.52;;;1.40;;
18711;SDS011;9485;49.386;8.674;2023-05-07T08:44:57;2.28;;;1.52;;
18711;SDS011;9485;49.386;8.674;2023-05-07T08:50:21;1.65;;;1.40;;
18711;SDS011;9485;49.386;8.674;2023-05-07T08:55:45;1.52;;;1.35;;
18711;SDS011;9485;49.386;8.674;2023-05-07T09:01:08;1.75;;;1.60;;
18711;SDS011;9485;49.386;8.674;2023-05-07T09:06:34;2.63;;;1.70;;
18711;SDS011;9485;49.386;8.674;2023-05-07T09:11:58;1.42;;;1.20;;
18711;SDS011;9485;49.386;8.674;2023-05-07T09:17:24;2.42;;;1.58;;
18711;SDS011;9485;49.386;8.674;2023-05-07T09:22:45;1.50;;;1.40;;
18711;SDS011;9485;49.386;8.674;2023-05-07T09:28:10;1.90;;;1.20;;
18711;SDS011;9485;49.386;8.674;2023-05-07T09:33:33;1.83;;;1.30;;
18711;SDS011;9485;49.386;8.674;2023-05-07T09:38:58;2.33;;;1.50;;
18711;SDS011;9485;49.386;8.674;2023-05-07T09:44:21;2.35;;;1.33;;
18711;SDS011;9485;49.386;8.674;2023-05-07T09:49:46;1.80;;;1.60;;
18711;SDS011;9485;49.386;8.674;2023-05-07T09:55:12;1.52;;;1.42;;
18711;SDS011;9485;49.386;8.674;2023-05-07T10:00:36;1.55;;;1.42;;
18711;SDS011;9485;49.386;8.674;2023-05-07T10:06:07;2.00;;;1.50;;
18711;SDS011;9485;49.386;8.674;2023-05-07T10:11:31;1.95;;;1.48;;
18711;SDS011;9485;49.386;8.674;2023-05-07T10:16:55;1.77;;;1.60;;
18711;SDS011;9485;49.386;8.674;2023-05-07T10:22:18;1.70;;;1.38;;
18711;SDS011;9485;49.386;8.674;2023-05-07T10:27:42;1.63;;;1.27;;
18711;SDS011;9485;49.386;8.674;2023-05-07T10:33:06;1.35;;;1.25;;
18711;SDS011;9485;49.386;8.674;2023-05-07T10:38:34;1.25;;;1.17;;
18711;SDS011;9485;49.386;8.674;2023-05-07T10:43:55;1.30;;;1.20;;
18711;SDS011;9485;49.386;8.674;2023-05-07T10:49:24;1.30;;;1.20;;
18711;SDS011;9485;49.386;8.674;2023-05-07T11:00:55;5.18;;;4.75;;
18711;SDS011;9485;49.386;8.674;2023-05-07T11:06:36;2.65;;;1.75;;
18711;SDS011;9485;49.386;8.674;2023-05-07T11:12:01;2.20;;;1.30;;
18711;SDS011;9485;49.386;8.674;2023-05-07T11:17:33;1.98;;;1.20;;
18711;SDS011;9485;49.386;8.674;2023-05-07T11:29:41;2.40;;;1.30;;
18711;SDS011;9485;49.386;8.674;2023-05-07T11:35:08;2.10;;;1.20;;
18711;SDS011;9485;49.386;8.674;2023-05-07T11:40:29;2.72;;;1.20;;
18711;SDS011;9485;49.386;8.674;2023-05-07T11:45:51;1.77;;;1.30;;
18711;SDS011;9485;49.386;8.674;2023-05-07T11:51:12;1.42;;;1.33;;
18711;SDS011;9485;49.386;8.674;2023-05-07T11:56:34;1.65;;;1.30;;
18711;SDS011;9485;49.386;8.674;2023-05-07T12:01:57;2.00;;;1.35;;
18711;SDS011;9485;49.386;8.674;2023-05-07T12:07:18;1.42;;;1.20;;
18711;SDS011;9485;49.386;8.674;2023-05-07T12:12:39;1.70;;;1.35;;
18711;SDS011;9485;49.386;8.674;2023-05-07T12:18:01;1.50;;;1.40;;
18711;SDS011;9485;49.386;8.674;2023-05-07T12:23:22;1.42;;;1.33;;
18711;SDS011;9485;49.386;8.674;2023-05-07T12:28:43;1.92;;;1.30;;
18711;SDS011;9485;49.386;8.674;2023-05-07T12:34:05;1.95;;;1.23;;
18711;SDS011;9485;49.386;8.674;2023-05-07T12:39:26;1.67;;;1.50;;
18711;SDS011;9485;49.386;8.674;2023-05-07T12:44:47;1.60;;;1.50;;
18711;SDS011;9485;49.386;8.674;2023-05-07T12:50:09;1.88;;;1.17;;
18711;SDS011;9485;49.386;8.674;2023-05-07T12:55:30;1.30;;;1.20;;
18711;SDS011;9485;49.386;8.674;2023-05-07T13:00:51;2.00;;;1.30;;
18711;SDS011;9485;49.386;8.674;2023-05-07T13:06:14;1.30;;;1.20;;
18711;SDS011;9485;49.386;8.674;2023-05-07T13:11:36;1.30;;;1.15;;
18711;SDS011;9485;49.386;8.674;2023-05-07T13:16:57;1.40;;;1.30;;
18711;SDS011;9485;49.386;8.674;2023-05-07T13:22:19;1.63;;;1.33;;
18711;SDS011;9485;49.386;8.674;2023-05-07T13:27:40;1.33;;;1.23;;
18711;SDS011;9485;49.386;8.674;2023-05-07T13:33:01;1.33;;;1.20;;
18711;SDS011;9485;49.386;8.674;2023-05-07T13:38:23;1.60;;;1.50;;
18711;SDS011;9485;49.386;8.674;2023-05-07T13:43:45;1.48;;;1.20;;
18711;SDS011;9485;49.386;8.674;2023-05-07T13:49:05;1.40;;;1.30;;
18711;SDS011;9485;49.386;8.674;2023-05-07T13:54:27;1.50;;;1.20;;
18711;SDS011;9485;49.386;8.674;2023-05-07T13:59:48;1.55;;;1.20;;
18711;SDS011;9485;49.386;8.674;2023-05-07T14:05:10;1.45;;;1.35;;
18711;SDS011;9485;49.386;8.674;2023-05-07T14:10:33;2.65;;;1.38;;
18711;SDS011;9485;49.386;8.674;2023-05-07T14:15:54;1.55;;;1.23;;
18711;SDS011;9485;49.386;8.674;2023-05-07T14:21:14;2.90;;;1.52;;
18711;SDS011;9485;49.386;8.674;2023-05-07T14:26:38;2.67;;;1.45;;
18711;SDS011;9485;49.386;8.674;2023-05-07T14:31:58;1.73;;;1.50;;
18711;SDS011;9485;49.386;8.674;2023-05-07T14:37:19;1.10;;;1.00;;
18711;SDS011;9485;49.386;8.674;2023-05-07T14:42:41;5.30;;;1.83;;
18711;SDS011;9485;49.386;8.674;2023-05-07T14:48:02;2.63;;;1.50;;
18711;SDS011;9485;49.386;8.674;2023-05-07T14:53:24;3.33;;;1.60;;
18711;SDS011;9485;49.386;8.674;2023-05-07T14:58:46;3.03;;;1.27;;
18711;SDS011;9485;49.386;8.674;2023-05-07T15:04:08;3.25;;;1.30;;
18711;SDS011;9485;49.386;8.674;2023-05-07T15:09:28;4.47;;;2.00;;
18711;SDS011;9485;49.386;8.674;2023-05-07T15:14:50;1.83;;;1.67;;
18711;SDS011;9485;49.386;8.674;2023-05-07T15:20:11;1.98;;;1.42;;
18711;SDS011;9485;49.386;8.674;2023-05-07T15:25:34;2.78;;;1.33;;
18711;SDS011;9485;49.386;8.674;2023-05-07T15:30:56;4.75;;;1.52;;
18711;SDS011;9485;49.386;8.674;2023-05-07T15:36:17;1.65;;;1.08;;
18711;SDS011;9485;49.386;8.674;2023-05-07T15:41:37;1.77;;;1.20;;
18711;SDS011;9485;49.386;8.674;2023-05-07T15:47:01;2.25;;;1.10;;
18711;SDS011;9485;49.386;8.674;2023-05-07T15:52:22;2.08;;;1.60;;
18711;SDS011;9485;49.386;8.674;2023-05-07T15:57:43;1.70;;;1.40;;
18711;SDS011;9485;49.386;8.674;2023-05-07T16:03:05;1.30;;;1.15;;
18711;SDS011;9485;49.386;8.674;2023-05-07T16:08:27;4.35;;;1.52;;
18711;SDS011;9485;49.386;8.674;2023-05-07T16:13:49;1.40;;;1.30;;
18711;SDS011;9485;49.386;8.674;2023-05-07T16:19:11;2.30;;;1.23;;
18711;SDS011;9485;49.386;8.674;2023-05-07T16:24:32;1.30;;;1.20;;
18711;SDS011;9485;49.386;8.674;2023-05-07T16:29:52;1.23;;;1.02;;
18711;SDS011;9485;49.386;8.674;2023-05-07T16:35:14;2.07;;;1.00;;
18711;SDS011;9485;49.386;8.674;2023-05-07T16:40:37;1.77;;;1.13;;
18711;SDS011;9485;49.386;8.674;2023-05-07T16:45:58;3.43;;;1.53;;
18711;SDS011;9485;49.386;8.674;2023-05-07T16:51:21;1.53;;;1.20;;
18711;SDS011;9485;49.386;8.674;2023-05-07T16:56:43;2.20;;;0.80;;
18711;SDS011;9485;49.386;8.674;2023-05-07T17:02:06;1.80;;;1.00;;
18711;SDS011;9485;49.386;8.674;2023-05-07T17:07:28;3.17;;;1.40;;
18711;SDS011;9485;49.386;8.674;2023-05-07T17:12:50;1.20;;;0.93;;
18711;SDS011;9485;49.386;8.674;2023-05-07T17:18:10;1.47;;;1.37;;
18711;SDS011;9485;49.386;8.674;2023-05-07T17:23:33;3.23;;;1.23;;
18711;SDS011;9485;49.386;8.674;2023-05-07T17:28:54;1.03;;;1.03;;
18711;SDS011;9485;49.386;8.674;2023-05-07T17:34:15;1.30;;;1.07;;
18711;SDS011;9485;49.386;8.674;2023-05-07T17:39:38;2.13;;;1.27;;
18711;SDS011;9485;49.386;8.674;2023-05-07T17:44:59;1.27;;;1.10;;
18711;SDS011;9485;49.386;8.674;2023-05-07T17:50:19;1.67;;;1.10;;
18711;SDS011;9485;49.386;8.674;2023-05-07T17:55:41;1.90;;;1.20;;
18711;SDS011;9485;49.386;8.674;2023-05-07T18:01:04;2.17;;;1.30;;
18711;SDS011;9485;49.386;8.674;2023-05-07T18:06:24;1.57;;;1.33;;
18711;SDS011;9485;49.386;8.674;2023-05-07T18:11:47;1.60;;;1.23;;
18711;SDS011;9485;49.386;8.674;2023-05-07T18:17:07;1.50;;;1.40;;
18711;SDS011;9485;49.386;8.674;2023-05-07T18:22:29;2.00;;;1.40;;
18711;SDS011;9485;49.386;8.674;2023-05-07T18:27:51;1.90;;;1.30;;
18711;SDS011;9485;49.386;8.674;2023-05-07T18:33:12;1.60;;;1.50;;
18711;SDS011;9485;49.386;8.674;2023-05-07T18:38:33;1.03;;;1.03;;
18711;SDS011;9485;49.386;8.674;2023-05-07T18:43:55;0.80;;;0.80;;
18711;SDS011;9485;49.386;8.674;2023-05-07T18:49:16;1.00;;;0.90;;
18711;SDS011;9485;49.386;8.674;2023-05-07T18:54:37;1.13;;;0.97;;
18711;SDS011;9485;49.386;8.674;2023-05-07T19:00:00;2.40;;;1.37;;
18711;SDS011;9485;49.386;8.674;2023-05-07T19:05:20;1.20;;;1.00;;
18711;SDS011;9485;49.386;8.674;2023-05-07T19:10:42;1.80;;;1.42;;
18711;SDS011;9485;49.386;8.674;2023-05-07T19:16:05;2.40;;;1.52;;
18711;SDS011;9485;49.386;8.674;2023-05-07T19:21:27;2.93;;;1.50;;
18711;SDS011;9485;49.386;8.674;2023-05-07T19:26:48;2.53;;;2.00;;
18711;SDS011;9485;49.386;8.674;2023-05-07T19:32:10;2.20;;;1.57;;
18711;SDS011;9485;49.386;8.674;2023-05-07T19:37:31;1.97;;;1.77;;
18711;SDS011;9485;49.386;8.674;2023-05-07T19:42:51;2.47;;;2.10;;
18711;SDS011;9485;49.386;8.674;2023-05-07T19:48:13;3.37;;;1.83;;
18711;SDS011;9485;49.386;8.674;2023-05-07T19:53:34;1.90;;;1.80;;
18711;SDS011;9485;49.386;8.674;2023-05-07T19:58:55;1.83;;;1.73;;
18711;SDS011;9485;49.386;8.674;2023-05-07T20:04:17;2.03;;;1.83;;
18711;SDS011;9485;49.386;8.674;2023-05-07T20:09:38;3.83;;;2.27;;
18711;SDS011;9485;49.386;8.674;2023-05-07T20:15:00;2.08;;;1.85;;
18711;SDS011;9485;49.386;8.674;2023-05-07T20:20:22;2.83;;;2.55;;
18711;SDS011;9485;49.386;8.674;2023-05-07T20:25:43;4.32;;;2.13;;
18711;SDS011;9485;49.386;8.674;2023-05-07T20:31:03;2.83;;;2.63;;
18711;SDS011;9485;49.386;8.674;2023-05-07T20:36:25;3.83;;;3.53;;
18711;SDS011;9485;49.386;8.674;2023-05-07T20:41:46;3.93;;;2.80;;
18711;SDS011;9485;49.386;8.674;2023-05-07T20:47:07;2.00;;;1.67;;
18711;SDS011;9485;49.386;8.674;2023-05-07T20:52:29;1.80;;;1.43;;
18711;SDS011;9485;49.386;8.674;2023-05-07T20:57:49;1.77;;;1.67;;
18711;SDS011;9485;49.386;8.674;2023-05-07T21:03:10;1.50;;;1.40;;
18711;SDS011;9485;49.386;8.674;2023-05-07T21:08:32;3.40;;;1.70;;
18711;SDS011;9485;49.386;8.674;2023-05-07T21:13:53;2.97;;;1.90;;
18711;SDS011;9485;49.386;8.674;2023-05-07T21:19:13;2.50;;;1.75;;
18711;SDS011;9485;49.386;8.674;2023-05-07T21:24:35;1.50;;;1.40;;
18711;SDS011;9485;49.386;8.674;2023-05-07T21:29:56;1.83;;;1.55;;
18711;SDS011;9485;49.386;8.674;2023-05-07T21:35:22;1.70;;;1.60;;
18711;SDS011;9485;49.386;8.674;2023-05-07T21:40:44;2.17;;;1.70;;
18711;SDS011;9485;49.386;8.674;2023-05-07T21:46:05;2.30;;;1.50;;
18711;SDS011;9485;49.386;8.674;2023-05-07T21:51:26;2.00;;;1.80;;
18711;SDS011;9485;49.386;8.674;2023-05-07T21:56:48;2.20;;;1.70;;
18711;SDS011;9485;49.386;8.674;2023-05-07T22:02:09;1.97;;;1.67;;
18711;SDS011;9485;49.386;8.674;2023-05-07T22:07:30;2.33;;;1.90;;
18711;SDS011;9485;49.386;8.674;2023-05-07T22:12:51;2.05;;;1.85;;
18711;SDS011;9485;49.386;8.674;2023-05-07T22:18:12;2.37;;;2.17;;
18711;SDS011;9485;49.386;8.674;2023-05-07T22:23:32;2.45;;;2.13;;
18711;SDS011;9485;49.386;8.674;2023-05-07T22:28:54;2.40;;;2.20;;
18711;SDS011;9485;49.386;8.674;2023-05-07T22:34:14;2.80;;;2.13;;
18711;SDS011;9485;49.386;8.674;2023-05-07T22:39:35;2.50;;;2.23;;
18711;SDS011;9485;49.386;8.674;2023-05-07T22:44:57;2.50;;;2.20;;
18711;SDS011;9485;49.386;8.674;2023-05-07T22:50:17;2.67;;;1.87;;
18711;SDS011;9485;49.386;8.674;2023-05-07T22:55:38;1.90;;;1.80;;
18711;SDS011;9485;49.386;8.674;2023-05-07T23:01:01;1.93;;;1.73;;
18711;SDS011;9485;49.386;8.674;2023-05-07T23:06:46;1.80;;;1.70;;
18711;SDS011;9485;49.386;8.674;2023-05-07T23:12:07;1.57;;;1.47;;
18711;SDS011;9485;49.386;8.674;2023-05-07T23:17:29;3.10;;;1.70;;
18711;SDS011;9485;49.386;8.674;2023-05-07T23:22:52;2.00;;;1.90;;
18711;SDS011;9485;49.386;8.674;2023-05-07T23:28:12;1.47;;;1.37;;
18711;SDS011;9485;49.386;8.674;2023-05-07T23:33:35;1.63;;;1.53;;
18711;SDS011;9485;49.386;8.674;2023-05-07T23:38:56;1.50;;;1.40;;
18711;SDS011;9485;49.386;8.674;2023-05-07T23:44:17;1.80;;;1.50;;
18711;SDS011;9485;49.386;8.674;2023-05-07T23:49:39;1.83;;;1.73;;
18711;SDS011;9485;49.386;8.674;2023-05-07T23:54:59;2.80;;;1.73;;
